Rafael Nuñez International Airport
SKCG : now visible

Airfield :











YOU CAN JOIN US ON...

 
LOGIN :

Register | Disclaimer

   EN    FR    IT 

 









Legend :    VFR   Marginal VFR   IFR   Intensive IFR   Very Intensive IFR
Visi :
Ceiling :
>= 8 km
>= 3000ft
5 to 8 km
1000 to 3000 ft
1500m to 5 km
500 to 1000 ft
800 to 1500m
200 to 500 ft
< 800m
< 200 ft
Symbols :   Thunderstorms  Fog  Heavy snow  Heavy precipitations  Wind > 20 kt







- Airport Elevation : 4 ft
- IATA code : CTG


SKCG - Rafael Nuñez International

CURRENT METAR :
  • 210600Z VRB02KT 9999 FEW020 SCT080 27/25 A2987

EXPIRED METARs :
  • 210500Z 07003KT 9999 FEW017 BKN080 28/25 A2988
  • 210400Z 01005KT 9999 FEW015 SCT080 27/25 A2989

TAF TAF SKCG
Valid from the 21 at 06:00 until the 22 at 06:00 UTC


210500Z 2106/2206 03004KT 9999 SCT015
TEMPO 2109/2112 7000 VCFG SCT010
BECMG 2114/2116 32010KT
TEMPO 2118/2122 7000 RA SCT015CB TX32/2118Z TN25/2111Z
SKEC FIR / South America



MET'MAP, your aeronautical weather chart ! - Copyright ORBIFLY December 2007 - Disclaimer

ORBIFLY MET'MAP TEAM :

Programming & Development : Alexandra Zaïnal
Concept & Development : Baudouin d'Aumeries
Co-Development & Prog : Marc-Olivier Méhu
Technical & hardware support : Manuel Goepfert

Contact : metmap@orbifly.com




SOURCES & CREDITS :

   NOAA       Earth
Advisory